Time;durP1;ratioP1;P1;durP2;ratioP2;P2;SDS_P1;SDS_P2;PMS_P1;PMS_P2;Temp;Humidity;BMP_temperature;BMP_pressure;BME280_temperature;BME280_humidity;BME280_pressure;Samples;Min_cycle;Max_cycle;Signal;HPM_P1;HPM_P2
2022/12/05 00:00:53;;;;;;;20.10;11.00;;;;;;;2.26;100.00;151946.41;5009260;28;20503;-88
2022/12/05 00:03:38;;;;;;;22.70;12.20;;;;;;;2.22;100.00;151937.44;4993223;28;20464;-88
2022/12/05 00:06:25;;;;;;;16.20;10.67;;;;;;;2.20;100.00;151930.94;5010977;28;20522;-88
2022/12/05 00:09:11;;;;;;;15.03;10.80;;;;;;;2.16;100.00;151921.97;5010908;28;20409;-88
2022/12/05 00:11:57;;;;;;;18.77;11.83;;;;;;;2.17;100.00;151924.53;4991934;28;20472;-88
2022/12/05 00:14:42;;;;;;;16.07;11.47;;;;;;;2.18;100.00;151925.81;4995736;28;20467;-88
2022/12/05 00:17:29;;;;;;;17.63;10.80;;;;;;;2.15;100.00;151919.41;4977560;28;20444;-88
2022/12/05 00:20:14;;;;;;;17.00;10.20;;;;;;;2.13;100.00;151914.25;4992985;28;20500;-88
2022/12/05 00:23:00;;;;;;;17.70;10.00;;;;;;;2.15;100.00;151919.41;4987352;28;20976;-88
2022/12/05 00:25:45;;;;;;;19.40;11.67;;;;;;;2.13;100.00;151914.25;5004677;28;20456;-88
2022/12/05 00:28:31;;;;;;;18.07;11.27;;;;;;;2.15;100.00;151918.09;4991364;28;20421;-88
2022/12/05 00:31:18;;;;;;;12.93;9.97;;;;;;;2.10;100.00;151905.25;4979079;28;20932;-88
2022/12/05 00:34:05;;;;;;;16.70;11.33;;;;;;;2.08;100.00;151900.13;4997129;28;20993;-88
2022/12/05 00:36:50;;;;;;;15.83;10.80;;;;;;;2.13;100.00;151914.25;4983309;28;20464;-88
2022/12/05 00:39:35;;;;;;;12.07;9.17;;;;;;;2.10;100.00;151906.53;4992964;28;20556;-88
2022/12/05 00:42:20;;;;;;;16.63;11.20;;;;;;;2.08;100.00;151901.41;4989479;28;20463;-88
2022/12/05 00:45:07;;;;;;;15.43;10.07;;;;;;;2.08;100.00;151901.41;4992575;28;20440;-88
2022/12/05 00:47:52;;;;;;;13.10;9.43;;;;;;;2.12;100.00;151910.44;4996326;28;20506;-88
2022/12/05 00:50:38;;;;;;;17.43;11.03;;;;;;;2.12;100.00;151910.44;5015650;28;20511;-88
2022/12/05 00:53:24;;;;;;;15.83;10.43;;;;;;;2.10;100.00;151906.53;4987851;28;20464;-88
2022/12/05 00:56:11;;;;;;;14.50;8.83;;;;;;;2.12;100.00;151910.44;4996326;28;20445;-87
2022/12/05 00:58:57;;;;;;;20.37;11.70;;;;;;;2.12;100.00;151911.69;4995817;28;20452;-88
2022/12/05 01:01:44;;;;;;;16.90;9.97;;;;;;;2.16;100.00;151921.97;5002541;28;20546;-87
2022/12/05 01:04:30;;;;;;;13.47;9.57;;;;;;;2.15;100.00;151918.09;5001251;28;20413;-87
2022/12/05 01:07:16;;;;;;;15.20;9.77;;;;;;;2.16;100.00;151920.69;4996614;28;20440;-87
2022/12/05 01:10:02;;;;;;;13.33;8.80;;;;;;;2.16;100.00;151921.97;4995193;28;20461;-87
2022/12/05 01:12:47;;;;;;;13.70;8.83;;;;;;;2.17;100.00;151924.53;4997098;28;20569;-87
2022/12/05 01:15:36;;;;;;;14.80;10.30;;;;;;;2.13;100.00;151914.25;4963393;28;20457;-87
2022/12/05 01:18:22;;;;;;;13.90;9.87;;;;;;;2.13;100.00;151914.25;4986033;28;20537;-87
2022/12/05 01:21:08;;;;;;;16.13;9.67;;;;;;;2.15;100.00;151918.09;5002047;28;20998;-87
2022/12/05 01:23:55;;;;;;;11.03;7.83;;;;;;;2.14;100.00;151916.84;5011529;28;20491;-87
2022/12/05 01:26:42;;;;;;;14.17;8.80;;;;;;;2.15;100.00;151919.41;4995554;28;20431;-87
2022/12/05 01:29:27;;;;;;;14.50;8.97;;;;;;;2.10;100.00;151906.53;4976165;28;20461;-88
2022/12/05 01:32:13;;;;;;;15.10;8.77;;;;;;;2.09;100.00;151903.94;4993285;28;20899;-88
2022/12/05 01:34:58;;;;;;;13.33;8.53;;;;;;;2.11;100.00;151907.84;5006558;28;20432;-88
2022/12/05 01:37:44;;;;;;;13.10;8.87;;;;;;;2.10;100.00;151906.53;4972979;28;20453;-88
2022/12/05 01:40:30;;;;;;;13.53;9.00;;;;;;;2.10;100.00;151906.53;4986784;28;20488;-88
2022/12/05 01:43:18;;;;;;;15.07;8.97;;;;;;;2.07;100.00;151898.81;4994862;28;20481;-87
2022/12/05 01:46:03;;;;;;;15.30;9.07;;;;;;;2.08;100.00;151901.41;4994527;28;20811;-87
2022/12/05 01:48:48;;;;;;;16.87;9.20;;;;;;;2.09;100.00;151902.72;4974171;28;20547;-88
2022/12/05 01:51:34;;;;;;;14.60;8.70;;;;;;;2.11;100.00;151909.13;4992730;28;20453;-88
2022/12/05 01:54:22;;;;;;;15.07;8.77;;;;;;;2.13;100.00;151914.25;4977701;28;20442;-88
2022/12/05 01:57:10;;;;;;;14.13;9.70;;;;;;;2.13;100.00;151912.97;4979627;28;20480;-88
2022/12/05 01:59:58;;;;;;;15.20;8.77;;;;;;;2.11;100.00;151907.84;4995807;28;20448;-88
2022/12/05 02:02:46;;;;;;;14.77;9.30;;;;;;;2.11;100.00;151907.84;5014417;28;20413;-87
2022/12/05 02:05:34;;;;;;;15.73;9.50;;;;;;;2.09;100.00;151902.72;4975495;28;20784;-87
2022/12/05 02:08:19;;;;;;;14.37;9.63;;;;;;;2.09;100.00;151903.94;4978738;28;20432;-88
2022/12/05 02:11:06;;;;;;;13.50;8.80;;;;;;;2.08;100.00;151900.13;5000955;28;20849;-87
2022/12/05 02:14:14;;;;;;;15.70;9.63;;;;;;;2.07;100.00;151898.81;4999223;28;20449;-88
2022/12/05 02:17:08;;;;;;;13.43;9.40;;;;;;;2.12;100.00;151911.69;4982225;28;20448;-88
2022/12/05 02:20:12;;;;;;;13.37;8.87;;;;;;;2.10;100.00;151906.53;4993932;28;20509;-88
2022/12/05 02:23:15;;;;;;;14.33;8.07;;;;;;;2.11;100.00;151909.13;4992589;28;20449;-87
2022/12/05 02:26:17;;;;;;;15.50;9.60;;;;;;;2.10;100.00;151906.53;5002798;28;21026;-88
2022/12/05 02:29:50;;;;;;;15.43;9.73;;;;;;;2.10;100.00;151906.53;4995441;28;20506;-88
2022/12/05 02:32:49;;;;;;;14.77;8.73;;;;;;;2.15;100.00;151919.41;4986584;28;20464;-88
2022/12/05 02:35:42;;;;;;;16.00;10.37;;;;;;;2.13;100.00;151912.97;5001469;28;20488;-88
2022/12/05 02:38:31;;;;;;;17.80;10.10;;;;;;;2.12;100.00;151911.69;5003201;28;20452;-88
2022/12/05 02:41:20;;;;;;;15.30;9.77;;;;;;;2.11;100.00;151907.84;4994769;28;20967;-87
2022/12/05 02:44:08;;;;;;;16.33;9.43;;;;;;;2.12;100.00;151911.69;4993813;28;20433;-88
2022/12/05 02:46:54;;;;;;;17.73;9.80;;;;;;;2.14;100.00;151916.84;4994357;28;20441;-88
2022/12/05 02:49:42;;;;;;;15.93;9.97;;;;;;;2.14;100.00;151915.56;4995758;28;20787;-87
2022/12/05 02:52:27;;;;;;;18.80;11.17;;;;;;;2.13;100.00;151914.25;4994370;28;20429;-88
2022/12/05 02:55:14;;;;;;;20.00;9.43;;;;;;;2.15;100.00;151919.41;4990748;28;20908;-88
2022/12/05 02:58:03;;;;;;;18.60;10.60;;;;;;;2.14;100.00;151916.84;5000852;28;20596;-88
2022/12/05 03:00:53;;;;;;;21.63;10.83;;;;;;;2.13;100.00;151914.25;4994171;28;20485;-88
2022/12/05 03:03:39;;;;;;;16.70;10.67;;;;;;;2.14;100.00;151916.84;4993769;28;20425;-88
2022/12/05 03:06:28;;;;;;;15.67;10.60;;;;;;;2.16;100.00;151921.97;4990091;28;21232;-87
2022/12/05 03:09:16;;;;;;;13.13;9.00;;;;;;;2.15;100.00;151918.09;4991206;28;20567;-87
2022/12/05 03:12:06;;;;;;;20.77;10.90;;;;;;;2.16;100.00;151921.97;5013071;28;20472;-88
2022/12/05 03:14:55;;;;;;;17.20;10.20;;;;;;;2.20;100.00;151932.25;5011190;28;20460;-88
2022/12/05 03:17:44;;;;;;;18.37;11.00;;;;;;;2.19;100.00;151928.41;4981164;28;20766;-88
2022/12/05 03:20:33;;;;;;;15.87;11.00;;;;;;;2.21;100.00;151933.53;4993817;28;20476;-88
2022/12/05 03:23:22;;;;;;;14.13;9.37;;;;;;;2.23;100.00;151939.97;5004912;28;20433;-88
2022/12/05 03:26:13;;;;;;;19.40;10.40;;;;;;;2.21;100.00;151934.84;4989855;28;20647;-88
2022/12/05 03:29:05;;;;;;;17.40;9.73;;;;;;;2.22;100.00;151937.44;4994233;28;20776;-88
2022/12/05 03:31:56;;;;;;;19.63;9.50;;;;;;;2.24;100.00;151941.25;4993500;28;20453;-88
2022/12/05 03:34:51;;;;;;;15.70;9.80;;;;;;;2.24;100.00;151942.56;4979863;28;20516;-88
2022/12/05 03:37:44;;;;;;;15.20;10.10;;;;;;;2.29;100.00;151955.41;4985683;28;20491;-88
2022/12/05 03:40:33;;;;;;;18.13;10.90;;;;;;;2.28;100.00;151951.53;5012011;28;20475;-88
2022/12/05 03:43:22;;;;;;;21.07;11.10;;;;;;;2.29;100.00;151955.41;5002764;28;20919;-88
2022/12/05 03:46:11;;;;;;;18.50;11.80;;;;;;;2.31;100.00;151959.25;4983029;28;20457;-88
2022/12/05 03:49:00;;;;;;;16.27;9.73;;;;;;;2.31;100.00;151960.53;4989943;28;20425;-88
2022/12/05 03:51:50;;;;;;;15.40;10.27;;;;;;;2.31;100.00;151960.53;4977405;28;20931;-88
2022/12/05 03:54:37;;;;;;;15.10;10.10;;;;;;;2.33;100.00;151965.66;4989674;28;20460;-88
2022/12/05 03:57:28;;;;;;;24.53;12.20;;;;;;;2.32;100.00;151963.13;4993699;28;20445;-88
2022/12/05 04:00:17;;;;;;;16.30;10.30;;;;;;;2.35;100.00;151970.84;4991549;28;20469;-88
2022/12/05 04:03:06;;;;;;;20.83;12.30;;;;;;;2.35;100.00;151970.84;4975708;28;20550;-88
2022/12/05 04:05:54;;;;;;;17.40;10.03;;;;;;;2.33;100.00;151965.66;5005754;28;20779;-87
2022/12/05 04:08:43;;;;;;;15.37;9.90;;;;;;;2.35;100.00;151969.56;4991092;28;20432;-87
2022/12/05 04:11:32;;;;;;;17.80;10.47;;;;;;;2.31;100.00;151960.53;4992018;28;20686;-88
2022/12/05 04:14:22;;;;;;;14.50;10.23;;;;;;;2.31;100.00;151959.25;4992283;28;20599;-88
2022/12/05 04:17:10;;;;;;;20.43;12.73;;;;;;;2.29;100.00;151955.41;4992056;28;20460;-88
2022/12/05 04:23:01;;;;;;;18.50;10.07;;;;;;;2.29;100.00;151954.13;4987133;28;20470;-88
2022/12/05 04:25:53;;;;;;;16.60;11.13;;;;;;;2.27;100.00;151948.97;4994730;28;20899;-88
2022/12/05 04:28:39;;;;;;;19.30;10.97;;;;;;;2.26;100.00;151947.69;4987083;28;20464;-87
2022/12/05 04:31:30;;;;;;;16.40;10.30;;;;;;;2.26;100.00;151947.69;4991828;28;20779;-88
2022/12/05 04:34:18;;;;;;;14.77;10.23;;;;;;;2.25;100.00;151943.84;4973563;28;20394;-88
2022/12/05 04:37:07;;;;;;;17.67;12.40;;;;;;;2.25;100.00;151945.09;4977193;28;20452;-88
2022/12/05 04:39:55;;;;;;;17.43;9.83;;;;;;;2.26;100.00;151947.69;4992627;28;20912;-88
2022/12/05 04:42:42;;;;;;;17.80;10.97;;;;;;;2.26;100.00;151947.69;4978630;28;20819;-88
2022/12/05 04:45:27;;;;;;;14.10;9.30;;;;;;;2.27;100.00;151950.28;4974195;28;20494;-89
2022/12/05 04:48:16;;;;;;;15.13;10.70;;;;;;;2.27;100.00;151950.28;4990558;28;20421;-89
2022/12/05 04:51:01;;;;;;;13.27;9.77;;;;;;;2.27;100.00;151948.97;4991357;28;20496;-88
2022/12/05 04:53:49;;;;;;;18.63;10.50;;;;;;;2.25;100.00;151945.09;4992244;28;20907;-88
2022/12/05 04:56:35;;;;;;;15.87;9.87;;;;;;;2.27;100.00;151948.97;4990601;28;20465;-88
2022/12/05 04:59:20;;;;;;;14.87;9.43;;;;;;;2.27;100.00;151950.28;4993243;28;20429;-88
2022/12/05 05:02:08;;;;;;;18.13;11.40;;;;;;;2.24;100.00;151942.56;4989286;28;20567;-88
2022/12/05 05:04:58;;;;;;;17.30;10.60;;;;;;;2.24;100.00;151941.25;4988764;28;20445;-88
2022/12/05 05:07:44;;;;;;;18.03;10.67;;;;;;;2.22;100.00;151937.44;4992061;28;20493;-88
2022/12/05 05:10:37;;;;;;;15.73;9.50;;;;;;;2.19;100.00;151929.72;4990152;28;20464;-88
2022/12/05 05:13:22;;;;;;;15.23;10.10;;;;;;;2.18;100.00;151927.13;4991893;28;20421;-90
2022/12/05 05:16:09;;;;;;;18.10;10.10;;;;;;;2.16;100.00;151921.97;5000539;28;20444;-88
2022/12/05 05:18:54;;;;;;;18.13;10.13;;;;;;;2.20;100.00;151932.25;5004189;28;20452;-88
2022/12/05 05:21:42;;;;;;;18.47;10.70;;;;;;;2.18;100.00;151925.81;4988876;28;20503;-88
2022/12/05 05:24:27;;;;;;;15.10;9.50;;;;;;;2.30;100.00;151957.94;4992479;28;20420;-88
2022/12/05 05:27:12;;;;;;;20.23;10.87;;;;;;;2.34;100.00;151966.97;4991342;28;20503;-88
2022/12/05 05:29:58;;;;;;;14.83;9.87;;;;;;;2.32;100.00;151963.13;4990071;28;20453;-88
2022/12/05 05:32:43;;;;;;;15.20;9.90;;;;;;;2.27;100.00;151948.97;4997855;28;20424;-88
2022/12/05 05:35:28;;;;;;;17.47;10.27;;;;;;;2.26;100.00;151946.41;4989351;28;20947;-88
2022/12/05 05:38:15;;;;;;;15.60;10.10;;;;;;;2.25;100.00;151945.09;5000717;28;20455;-88
2022/12/05 05:41:00;;;;;;;18.13;11.43;;;;;;;2.25;100.00;151945.09;4993136;28;22464;-88
2022/12/05 05:43:46;;;;;;;13.57;9.63;;;;;;;2.27;100.00;151950.28;4994175;28;20760;-88
2022/12/05 05:46:32;;;;;;;17.83;10.90;;;;;;;2.27;100.00;151948.97;4990745;28;20596;-88
2022/12/05 05:49:17;;;;;;;16.47;10.57;;;;;;;2.29;100.00;151955.41;4980872;28;20512;-87
2022/12/05 05:52:03;;;;;;;16.80;10.20;;;;;;;2.31;100.00;151960.53;4992427;28;20792;-88
2022/12/05 05:54:50;;;;;;;13.87;10.10;;;;;;;2.34;100.00;151968.25;4997244;28;20446;-88
2022/12/05 05:57:35;;;;;;;17.00;10.60;;;;;;;2.36;100.00;151972.09;4983774;28;20433;-88
2022/12/05 06:00:21;;;;;;;16.47;9.80;;;;;;;2.37;100.00;151976.00;4992835;28;20453;-87
2022/12/05 06:03:07;;;;;;;18.03;10.57;;;;;;;2.38;100.00;151977.28;4991859;28;20464;-87
2022/12/05 06:05:57;;;;;;;15.87;10.30;;;;;;;2.39;100.00;151981.13;4988670;28;21221;-87
2022/12/05 06:08:43;;;;;;;15.73;10.67;;;;;;;2.39;100.00;151981.13;4993156;28;21035;-87
2022/12/05 06:11:30;;;;;;;17.63;11.50;;;;;;;2.44;100.00;151992.69;4993081;28;20481;-86
2022/12/05 06:14:15;;;;;;;13.67;10.00;;;;;;;2.40;100.00;151982.41;4992240;28;20455;-87
2022/12/05 06:17:01;;;;;;;16.80;10.03;;;;;;;2.41;100.00;151986.25;4990269;28;20461;-87
2022/12/05 06:19:46;;;;;;;22.60;11.43;;;;;;;2.46;100.00;151997.84;4994584;28;20833;-87
2022/12/05 06:22:32;;;;;;;16.37;12.07;;;;;;;2.42;100.00;151988.84;4994312;28;20468;-87
2022/12/05 06:25:17;;;;;;;19.80;11.57;;;;;;;2.39;100.00;151981.13;5000061;28;20433;-87
2022/12/05 06:28:04;;;;;;;21.03;11.10;;;;;;;2.38;100.00;151977.28;4992953;28;20488;-87
2022/12/05 06:30:49;;;;;;;16.03;11.10;;;;;;;2.40;100.00;151982.41;4973041;28;20622;-87
2022/12/05 06:33:35;;;;;;;17.70;11.57;;;;;;;2.36;100.00;151973.41;4973213;28;20406;-87
2022/12/05 06:36:21;;;;;;;17.50;11.57;;;;;;;2.37;100.00;151976.00;4987366;28;20460;-87
2022/12/05 06:39:07;;;;;;;19.87;10.87;;;;;;;2.36;100.00;151972.09;4972508;28;20417;-87
2022/12/05 06:41:52;;;;;;;16.80;11.83;;;;;;;2.38;100.00;151977.28;4988625;28;20568;-87
2022/12/05 06:44:39;;;;;;;18.47;11.37;;;;;;;2.42;100.00;151988.84;4990469;28;20430;-87
2022/12/05 06:47:25;;;;;;;19.07;12.17;;;;;;;2.39;100.00;151981.13;4980701;28;20504;-87
2022/12/05 06:50:10;;;;;;;19.23;12.30;;;;;;;2.37;100.00;151976.00;4993682;28;20428;-87
2022/12/05 06:52:55;;;;;;;15.70;11.07;;;;;;;2.39;100.00;151981.13;4989892;28;20517;-87
2022/12/05 06:55:41;;;;;;;17.87;11.30;;;;;;;2.40;100.00;151983.72;4972819;28;20442;-87
2022/12/05 06:58:26;;;;;;;18.60;12.73;;;;;;;2.39;100.00;151981.13;4996044;28;20503;-87
2022/12/05 07:04:19;;;;;;;16.70;11.47;;;;;;;2.42;100.00;151987.53;5010669;28;20432;-87
2022/12/05 07:07:04;;;;;;;16.20;11.23;;;;;;;2.42;100.00;151987.53;5011766;28;20514;-88
2022/12/05 07:09:52;;;;;;;21.80;12.97;;;;;;;2.41;100.00;151986.25;5012252;28;21046;-87
2022/12/05 07:12:37;;;;;;;18.00;12.37;;;;;;;2.42;100.00;151988.84;5012840;28;20459;-87
2022/12/05 07:15:23;;;;;;;15.67;11.03;;;;;;;2.42;100.00;151987.53;4999549;28;20424;-87
2022/12/05 07:18:10;;;;;;;20.20;11.00;;;;;;;2.41;100.00;151984.97;4993401;28;20421;-87
2022/12/05 07:20:56;;;;;;;19.30;11.43;;;;;;;2.43;100.00;151990.13;4993850;28;20455;-87
2022/12/05 07:23:43;;;;;;;15.27;12.10;;;;;;;2.47;100.00;152001.69;4993431;28;20413;-87
2022/12/05 07:26:28;;;;;;;17.73;12.30;;;;;;;2.52;100.00;152013.25;4973604;28;20526;-87
2022/12/05 07:29:13;;;;;;;14.90;11.10;;;;;;;2.55;100.00;152020.97;4973374;28;20406;-87
2022/12/05 07:31:59;;;;;;;20.30;12.77;;;;;;;2.59;100.00;152030.00;4982201;28;20437;-76
2022/12/05 07:34:45;;;;;;;25.30;13.20;;;;;;;2.63;100.00;152041.56;4992397;28;20441;-75
2022/12/05 07:37:30;;;;;;;21.43;12.27;;;;;;;2.63;100.00;152041.56;5002826;28;20443;-76
2022/12/05 07:40:16;;;;;;;17.00;12.60;;;;;;;2.64;100.00;152044.16;4983351;28;20506;-76
2022/12/05 07:43:02;;;;;;;16.73;11.10;;;;;;;2.69;100.00;152055.72;4992495;28;20488;-76
2022/12/05 07:45:47;;;;;;;18.80;13.10;;;;;;;2.73;100.00;152065.97;4984222;28;20429;-76
2022/12/05 07:48:32;;;;;;;17.97;12.83;;;;;;;2.80;100.00;152084.03;4996208;28;20448;-76
2022/12/05 07:51:20;;;;;;;20.67;14.60;;;;;;;2.86;100.00;152099.47;4996917;28;20464;-76
2022/12/05 07:54:06;;;;;;;17.23;12.47;;;;;;;2.93;100.00;152117.47;4992741;28;20534;-76
2022/12/05 07:56:50;;;;;;;17.37;11.80;;;;;;;3.01;100.00;152138.06;5011014;28;20408;-76
2022/12/05 07:59:36;;;;;;;18.33;13.60;;;;;;;3.06;100.00;152152.22;5011950;28;20400;-76
2022/12/05 08:02:21;;;;;;;17.70;12.73;;;;;;;3.16;100.00;152175.34;4996788;28;20567;-76
2022/12/05 08:05:07;;;;;;;25.00;11.90;;;;;;;3.23;100.00;152193.41;4980350;28;20453;-76
2022/12/05 08:07:53;;;;;;;20.30;13.43;;;;;;;3.26;100.00;152202.38;4990571;28;21023;-76
2022/12/05 08:10:38;;;;;;;25.70;17.10;;;;;;;3.32;100.00;152217.81;4990848;28;20452;-75
2022/12/05 08:13:24;;;;;;;27.03;17.73;;;;;;;3.30;100.00;152212.69;4990750;28;20785;-76
2022/12/05 08:16:10;;;;;;;27.63;19.20;;;;;;;3.31;100.00;152215.22;4972291;28;20528;-76
2022/12/05 08:18:56;;;;;;;26.00;15.57;;;;;;;3.29;100.00;152210.09;4958366;28;20434;-76
2022/12/05 08:21:41;;;;;;;18.83;13.57;;;;;;;3.33;100.00;152220.41;4984216;28;20420;-76
2022/12/05 08:24:28;;;;;;;18.67;12.00;;;;;;;3.35;100.00;152225.56;5005333;28;20591;-76
2022/12/05 08:27:13;;;;;;;17.40;14.33;;;;;;;3.34;100.00;152222.97;4969909;28;20564;-76
2022/12/05 08:29:58;;;;;;;16.80;12.87;;;;;;;3.33;100.00;152220.41;4991640;28;20561;-76
2022/12/05 08:32:43;;;;;;;15.30;11.43;;;;;;;3.34;100.00;152222.97;4989551;28;20436;-76
2022/12/05 08:35:29;;;;;;;16.27;12.20;;;;;;;3.36;100.00;152226.84;4991936;28;20421;-76
2022/12/05 08:38:14;;;;;;;14.70;11.23;;;;;;;3.37;100.00;152230.69;4991821;28;20924;-76
2022/12/05 08:41:02;;;;;;;15.03;11.40;;;;;;;3.35;100.00;152225.56;4991174;28;20425;-76
2022/12/05 08:43:47;;;;;;;16.93;11.77;;;;;;;3.35;100.00;152225.56;4985696;28;20477;-76
2022/12/05 08:46:33;;;;;;;17.40;11.43;;;;;;;3.36;100.00;152228.09;4991200;28;20456;-76
2022/12/05 08:49:19;;;;;;;16.90;11.53;;;;;;;3.36;100.00;152228.09;4976625;28;20569;-76
2022/12/05 08:52:05;;;;;;;18.80;12.90;;;;;;;3.38;100.00;152233.28;4973857;28;20428;-76
2022/12/05 08:54:50;;;;;;;16.87;12.20;;;;;;;3.40;100.00;152238.41;4988632;28;20580;-76
2022/12/05 08:57:37;;;;;;;15.20;12.23;;;;;;;3.42;100.00;152243.56;4974591;28;20551;-76
2022/12/05 09:00:22;;;;;;;15.17;10.33;;;;;;;3.46;100.00;152253.88;4989950;28;20410;-76
2022/12/05 09:03:09;;;;;;;13.57;11.37;;;;;;;3.48;100.00;152257.72;4996642;28;20607;-76
2022/12/05 09:05:54;;;;;;;15.50;11.30;;;;;;;3.52;100.00;152269.28;4977505;28;20449;-76
2022/12/05 09:08:40;;;;;;;18.00;13.00;;;;;;;3.57;100.00;152280.91;4986140;28;20436;-76
2022/12/05 09:11:28;;;;;;;12.33;10.30;;;;;;;3.61;100.00;152291.19;4995136;28;20467;-76
2022/12/05 09:14:15;;;;;;;14.37;9.70;;;;;;;3.64;100.00;152300.22;5006514;28;20526;-76
2022/12/05 09:17:03;;;;;;;14.00;10.77;;;;;;;3.66;100.00;152305.34;5016574;28;20408;-76
2022/12/05 09:19:51;;;;;;;15.87;10.43;;;;;;;3.69;100.00;152313.09;5009129;28;20542;-76
2022/12/05 09:22:36;;;;;;;12.70;10.00;;;;;;;3.72;100.00;152319.50;4985791;28;20535;-76
2022/12/05 09:25:21;;;;;;;14.17;9.50;;;;;;;3.74;100.00;152324.66;4992041;28;20779;-76
2022/12/05 09:28:06;;;;;;;16.07;10.00;;;;;;;3.80;100.00;152338.81;4995055;28;20437;-76
2022/12/05 09:31:03;;;;;;;12.30;9.10;;;;;;;3.85;100.00;152351.69;4994665;28;20445;-76
2022/12/05 09:33:50;;;;;;;11.67;9.30;;;;;;;3.88;100.00;152359.44;4989712;28;20436;-76
2022/12/05 09:36:35;;;;;;;12.33;9.77;;;;;;;3.92;100.00;152371.00;4993893;28;20428;-76
2022/12/05 09:39:20;;;;;;;12.00;9.40;;;;;;;3.95;100.00;152377.44;4994220;28;20449;-76
2022/12/05 09:42:17;;;;;;;11.57;9.30;;;;;;;3.99;100.00;152387.75;4988927;28;20976;-76
2022/12/05 09:45:23;;;;;;;13.30;10.53;;;;;;;4.03;100.00;152398.03;4991888;28;20583;-76
2022/12/05 09:48:14;;;;;;;11.77;9.17;;;;;;;4.03;100.00;152399.34;4993226;28;20664;-76
2022/12/05 09:51:01;;;;;;;12.80;10.40;;;;;;;4.05;100.00;152403.22;4987559;28;20497;-76
2022/12/05 09:53:47;;;;;;;12.87;10.30;;;;;;;4.04;100.00;152400.63;4990169;28;20441;-76
2022/12/05 09:56:32;;;;;;;15.07;12.00;;;;;;;4.04;100.00;152400.63;4992911;28;20967;-76
2022/12/05 09:59:19;;;;;;;19.13;13.80;;;;;;;4.04;100.00;152401.94;4991828;28;20956;-76
2022/12/05 10:02:16;;;;;;;15.63;12.43;;;;;;;4.06;100.00;152405.78;4987783;28;20449;-76
2022/12/05 10:05:04;;;;;;;11.90;9.50;;;;;;;4.09;100.00;152413.50;4987413;28;20933;-76
2022/12/05 10:07:55;;;;;;;14.93;11.87;;;;;;;4.10;100.00;152416.09;4993202;28;20548;-77
2022/12/05 10:10:46;;;;;;;12.40;8.93;;;;;;;4.15;100.00;152428.97;4995017;28;20438;-76
2022/12/05 10:13:44;;;;;;;11.00;9.07;;;;;;;4.17;100.00;152434.13;4985584;28;20520;-76
2022/12/05 10:16:32;;;;;;;11.43;9.43;;;;;;;4.25;100.00;152454.72;4978054;28;20447;-76
2022/12/05 10:19:20;;;;;;;12.10;9.10;;;;;;;4.28;100.00;152462.47;4993440;28;20467;-76
2022/12/05 10:22:13;;;;;;;10.90;9.07;;;;;;;4.32;100.00;152472.75;4990224;28;20449;-76
2022/12/05 10:25:02;;;;;;;11.07;8.73;;;;;;;4.37;100.00;152484.38;4993310;28;20418;-76
2022/12/05 10:27:51;;;;;;;12.90;10.33;;;;;;;4.40;100.00;152493.34;4988272;28;20456;-76
2022/12/05 10:30:37;;;;;;;10.83;8.23;;;;;;;4.47;100.00;152511.41;4992656;28;20935;-76
2022/12/05 10:33:24;;;;;;;7.80;6.77;;;;;;;4.54;100.00;152529.44;4994217;28;20928;-76
2022/12/05 10:36:10;;;;;;;10.50;7.10;;;;;;;4.62;100.00;152550.06;4993483;28;20445;-77
2022/12/05 10:38:57;;;;;;;9.97;6.23;;;;;;;4.73;100.00;152577.13;4972433;28;20436;-78
2022/12/05 10:41:42;;;;;;;8.67;6.53;;;;;;;4.80;100.00;152595.13;4994033;28;20468;-77
2022/12/05 10:44:27;;;;;;;7.60;5.93;;;;;;;4.86;100.00;152611.91;4992363;28;20777;-78
2022/12/05 10:47:13;;;;;;;8.00;5.70;;;;;;;4.94;100.00;152631.22;4982977;28;20446;-77
2022/12/05 10:50:02;;;;;;;6.23;5.60;;;;;;;5.01;100.00;152649.25;4973943;28;20910;-78
2022/12/05 10:52:48;;;;;;;10.17;6.67;;;;;;;5.08;100.00;152667.34;4974129;28;20477;-77
2022/12/05 10:55:41;;;;;;;7.30;6.30;;;;;;;5.15;100.00;152685.38;4982408;28;20580;-78
2022/12/05 10:58:28;;;;;;;6.80;5.47;;;;;;;5.20;100.00;152696.94;4980464;28;20448;-78
2022/12/05 11:01:14;;;;;;;6.83;5.50;;;;;;;5.19;100.00;152694.41;4993880;28;20923;-77
2022/12/05 11:04:01;;;;;;;6.67;5.10;;;;;;;5.21;100.00;152700.84;4992921;28;21042;-77
2022/12/05 11:06:52;;;;;;;5.80;4.90;;;;;;;5.25;100.00;152709.84;4976923;28;20437;-77
2022/12/05 11:09:38;;;;;;;6.50;4.70;;;;;;;5.27;100.00;152715.03;4992235;28;20628;-78
2022/12/05 11:12:27;;;;;;;5.90;5.30;;;;;;;5.34;100.00;152733.06;4993067;28;20471;-77
2022/12/05 11:15:23;;;;;;;5.60;4.83;;;;;;;5.39;100.00;152745.94;4992803;28;20429;-77
2022/12/05 11:18:19;;;;;;;5.93;4.90;;;;;;;5.39;100.00;152745.94;4999294;28;20451;-78
2022/12/05 11:21:12;;;;;;;5.53;4.10;;;;;;;5.39;100.00;152745.94;5011911;28;20754;-77
2022/12/05 11:23:57;;;;;;;6.77;4.37;;;;;;;5.38;100.00;152743.34;4987451;28;20465;-78
2022/12/05 11:26:44;;;;;;;5.10;4.13;;;;;;;5.41;100.00;152752.41;4984721;28;20552;-78
2022/12/05 11:29:34;;;;;;;5.03;4.17;;;;;;;5.46;100.00;152765.28;4993251;28;20503;-77
2022/12/05 11:32:22;;;;;;;5.27;4.20;;;;;;;5.49;100.00;152771.72;4977936;28;20792;-77
2022/12/05 11:35:11;;;;;;;5.17;4.30;;;;;;;5.56;100.00;152789.75;4975528;28;20822;-78
2022/12/05 11:37:59;;;;;;;6.33;4.63;;;;;;;5.66;100.00;152815.59;4993998;28;20445;-77
2022/12/05 11:40:49;;;;;;;4.70;4.03;;;;;;;5.70;100.00;152825.88;4972981;28;20441;-76
2022/12/05 11:44:00;;;;;;;6.40;5.10;;;;;;;5.79;100.00;152849.13;4977070;28;20477;-78
2022/12/05 11:46:56;;;;;;;5.90;4.40;;;;;;;5.88;100.00;152872.34;4979794;28;20932;-76
2022/12/05 11:50:24;;;;;;;6.87;4.80;;;;;;;5.93;100.00;152885.25;4992125;28;20483;-77
2022/12/05 11:53:30;;;;;;;7.33;6.27;;;;;;;5.99;100.00;152900.75;4947610;29;20954;-76
2022/12/05 11:56:23;;;;;;;6.70;5.63;;;;;;;6.03;100.00;152909.78;4951025;29;20406;-77
2022/12/05 11:59:19;;;;;;;7.40;5.43;;;;;;;6.05;100.00;152914.94;4989908;28;20576;-76
2022/12/05 12:02:18;;;;;;;7.10;4.87;;;;;;;6.07;100.00;152921.38;4973350;28;20538;-76
2022/12/05 12:05:07;;;;;;;6.80;4.97;;;;;;;6.04;100.00;152913.63;4993747;28;20465;-77
2022/12/05 12:08:01;;;;;;;6.57;4.30;;;;;;;6.00;100.00;152903.34;4992311;28;20482;-77
2022/12/05 12:10:52;;;;;;;4.40;4.00;;;;;;;5.98;100.00;152898.16;4991695;28;20405;-77
2022/12/05 12:13:48;;;;;;;3.90;3.60;;;;;;;5.98;100.00;152896.91;4972744;28;20428;-77
2022/12/05 12:16:39;;;;;;;4.67;3.93;;;;;;;6.00;100.00;152902.03;4967564;28;20444;-77
2022/12/05 12:19:40;;;;;;;6.90;4.27;;;;;;;5.96;100.00;152893.00;4970806;28;20597;-77
2022/12/05 12:22:37;;;;;;;5.00;3.60;;;;;;;5.94;100.00;152887.84;4971230;28;20418;-77
2022/12/05 12:25:31;;;;;;;7.20;4.63;;;;;;;6.00;100.00;152903.34;4974317;28;20869;-77
2022/12/05 12:28:28;;;;;;;4.43;3.83;;;;;;;6.03;100.00;152909.78;4966548;28;20469;-77
2022/12/05 12:31:24;;;;;;;6.70;4.23;;;;;;;5.99;100.00;152900.75;4953540;29;20395;-77
2022/12/05 12:34:27;;;;;;;5.43;3.40;;;;;;;6.03;100.00;152911.09;4971663;28;20826;-77
2022/12/05 12:37:20;;;;;;;3.43;2.93;;;;;;;6.06;100.00;152918.78;4969242;28;20445;-77
2022/12/05 12:40:14;;;;;;;3.97;3.60;;;;;;;6.07;100.00;152921.38;4948903;29;20435;-77
2022/12/05 12:43:07;;;;;;;3.33;2.67;;;;;;;6.01;100.00;152905.88;4970112;28;20472;-77
2022/12/05 12:46:08;;;;;;;3.47;3.00;;;;;;;6.04;100.00;152913.63;4978978;28;20438;-77
2022/12/05 12:49:19;;;;;;;5.30;3.50;;;;;;;6.05;100.00;152916.25;4956398;29;20590;-77
2022/12/05 12:52:12;;;;;;;5.93;5.00;;;;;;;6.05;100.00;152916.25;4956516;29;20445;-77
2022/12/05 12:55:08;;;;;;;4.67;3.10;;;;;;;6.06;100.00;152918.78;4971016;28;20496;-77
2022/12/05 12:58:04;;;;;;;3.40;2.80;;;;;;;6.08;100.00;152922.69;4968491;28;20433;-77